sensor_id;sensor_type;location;lat;lon;timestamp;P1;durP1;ratioP1;P2;durP2;ratioP2
34924;SDS011;21130;51.728;8.748;2023-11-22T00:02:06;6.25;;;4.55;;
34924;SDS011;21130;51.728;8.748;2023-11-22T00:04:34;7.00;;;5.18;;
34924;SDS011;21130;51.728;8.748;2023-11-22T00:07:00;5.78;;;4.88;;
34924;SDS011;21130;51.728;8.748;2023-11-22T00:09:27;5.30;;;4.80;;
34924;SDS011;21130;51.728;8.748;2023-11-22T00:11:53;7.25;;;5.68;;
34924;SDS011;21130;51.728;8.748;2023-11-22T00:14:20;6.20;;;5.60;;
34924;SDS011;21130;51.728;8.748;2023-11-22T00:16:46;5.90;;;5.30;;
34924;SDS011;21130;51.728;8.748;2023-11-22T00:19:13;5.90;;;5.25;;
34924;SDS011;21130;51.728;8.748;2023-11-22T00:21:43;6.53;;;5.75;;
34924;SDS011;21130;51.728;8.748;2023-11-22T00:24:10;7.43;;;6.28;;
34924;SDS011;21130;51.728;8.748;2023-11-22T00:26:37;7.75;;;6.25;;
34924;SDS011;21130;51.728;8.748;2023-11-22T00:29:03;7.28;;;6.28;;
34924;SDS011;21130;51.728;8.748;2023-11-22T00:31:30;7.25;;;6.00;;
34924;SDS011;21130;51.728;8.748;2023-11-22T00:33:56;7.00;;;5.68;;
34924;SDS011;21130;51.728;8.748;2023-11-22T00:36:23;9.32;;;5.63;;
34924;SDS011;21130;51.728;8.748;2023-11-22T00:38:50;6.70;;;5.32;;
34924;SDS011;21130;51.728;8.748;2023-11-22T00:41:17;7.00;;;5.93;;
34924;SDS011;21130;51.728;8.748;2023-11-22T00:43:44;6.63;;;5.93;;
34924;SDS011;21130;51.728;8.748;2023-11-22T00:46:11;6.32;;;5.32;;
34924;SDS011;21130;51.728;8.748;2023-11-22T00:48:37;7.00;;;5.60;;
34924;SDS011;21130;51.728;8.748;2023-11-22T00:51:04;15.48;;;6.55;;
34924;SDS011;21130;51.728;8.748;2023-11-22T00:53:33;7.45;;;5.75;;
34924;SDS011;21130;51.728;8.748;2023-11-22T00:56:02;9.65;;;6.75;;
34924;SDS011;21130;51.728;8.748;2023-11-22T00:58:29;8.20;;;5.85;;
34924;SDS011;21130;51.728;8.748;2023-11-22T01:00:55;8.38;;;5.88;;
34924;SDS011;21130;51.728;8.748;2023-11-22T01:03:22;7.78;;;5.93;;
34924;SDS011;21130;51.728;8.748;2023-11-22T01:05:49;7.07;;;5.85;;
34924;SDS011;21130;51.728;8.748;2023-11-22T01:08:15;8.63;;;5.80;;
34924;SDS011;21130;51.728;8.748;2023-11-22T01:10:42;8.05;;;6.15;;
34924;SDS011;21130;51.728;8.748;2023-11-22T01:13:10;9.05;;;6.20;;
34924;SDS011;21130;51.728;8.748;2023-11-22T01:15:36;6.82;;;5.75;;
34924;SDS011;21130;51.728;8.748;2023-11-22T01:18:03;7.95;;;5.85;;
34924;SDS011;21130;51.728;8.748;2023-11-22T01:20:29;8.35;;;5.93;;
34924;SDS011;21130;51.728;8.748;2023-11-22T01:22:55;7.38;;;5.95;;
34924;SDS011;21130;51.728;8.748;2023-11-22T01:25:22;7.53;;;6.03;;
34924;SDS011;21130;51.728;8.748;2023-11-22T01:27:48;8.15;;;6.50;;
34924;SDS011;21130;51.728;8.748;2023-11-22T01:30:16;7.35;;;5.63;;
34924;SDS011;21130;51.728;8.748;2023-11-22T01:32:43;8.50;;;6.80;;
34924;SDS011;21130;51.728;8.748;2023-11-22T01:35:10;7.90;;;6.35;;
34924;SDS011;21130;51.728;8.748;2023-11-22T01:37:36;8.30;;;6.00;;
34924;SDS011;21130;51.728;8.748;2023-11-22T01:40:03;7.63;;;6.13;;
34924;SDS011;21130;51.728;8.748;2023-11-22T01:42:30;8.48;;;6.13;;
34924;SDS011;21130;51.728;8.748;2023-11-22T01:44:56;9.07;;;7.10;;
34924;SDS011;21130;51.728;8.748;2023-11-22T01:47:24;8.80;;;7.13;;
34924;SDS011;21130;51.728;8.748;2023-11-22T01:49:52;8.43;;;6.80;;
34924;SDS011;21130;51.728;8.748;2023-11-22T01:52:19;12.57;;;7.20;;
34924;SDS011;21130;51.728;8.748;2023-11-22T01:54:46;8.02;;;6.65;;
34924;SDS011;21130;51.728;8.748;2023-11-22T01:57:12;7.60;;;6.38;;
34924;SDS011;21130;51.728;8.748;2023-11-22T01:59:40;8.98;;;6.75;;
34924;SDS011;21130;51.728;8.748;2023-11-22T02:02:09;8.40;;;7.00;;
34924;SDS011;21130;51.728;8.748;2023-11-22T02:04:37;9.90;;;6.65;;
34924;SDS011;21130;51.728;8.748;2023-11-22T02:07:03;10.70;;;7.20;;
34924;SDS011;21130;51.728;8.748;2023-11-22T02:09:30;7.70;;;6.22;;
34924;SDS011;21130;51.728;8.748;2023-11-22T02:11:58;8.60;;;6.45;;
34924;SDS011;21130;51.728;8.748;2023-11-22T02:14:25;9.45;;;6.90;;
34924;SDS011;21130;51.728;8.748;2023-11-22T02:16:51;9.38;;;6.45;;
34924;SDS011;21130;51.728;8.748;2023-11-22T02:19:18;9.73;;;6.60;;
34924;SDS011;21130;51.728;8.748;2023-11-22T02:21:46;9.18;;;6.68;;
34924;SDS011;21130;51.728;8.748;2023-11-22T02:24:14;8.90;;;6.63;;
34924;SDS011;21130;51.728;8.748;2023-11-22T02:26:43;9.48;;;7.00;;
34924;SDS011;21130;51.728;8.748;2023-11-22T02:29:11;9.07;;;6.97;;
34924;SDS011;21130;51.728;8.748;2023-11-22T02:31:38;9.85;;;6.38;;
34924;SDS011;21130;51.728;8.748;2023-11-22T02:34:05;8.85;;;7.00;;
34924;SDS011;21130;51.728;8.748;2023-11-22T02:36:32;11.05;;;7.00;;
34924;SDS011;21130;51.728;8.748;2023-11-22T02:38:58;10.50;;;7.28;;
34924;SDS011;21130;51.728;8.748;2023-11-22T02:41:27;9.57;;;6.80;;
34924;SDS011;21130;51.728;8.748;2023-11-22T02:43:55;8.80;;;7.00;;
34924;SDS011;21130;51.728;8.748;2023-11-22T02:46:21;10.70;;;7.57;;
34924;SDS011;21130;51.728;8.748;2023-11-22T02:48:48;9.30;;;7.45;;
34924;SDS011;21130;51.728;8.748;2023-11-22T02:51:15;8.77;;;6.60;;
34924;SDS011;21130;51.728;8.748;2023-11-22T02:53:42;10.63;;;7.22;;
34924;SDS011;21130;51.728;8.748;2023-11-22T02:56:10;10.10;;;7.55;;
34924;SDS011;21130;51.728;8.748;2023-11-22T02:58:38;8.38;;;7.28;;
34924;SDS011;21130;51.728;8.748;2023-11-22T03:01:05;10.52;;;7.22;;
34924;SDS011;21130;51.728;8.748;2023-11-22T03:03:32;9.75;;;7.47;;
34924;SDS011;21130;51.728;8.748;2023-11-22T03:05:59;12.15;;;7.60;;
34924;SDS011;21130;51.728;8.748;2023-11-22T03:08:25;9.85;;;7.40;;
34924;SDS011;21130;51.728;8.748;2023-11-22T03:11:10;9.57;;;7.38;;
34924;SDS011;21130;51.728;8.748;2023-11-22T03:13:36;9.40;;;7.47;;
34924;SDS011;21130;51.728;8.748;2023-11-22T03:16:05;8.60;;;7.30;;
34924;SDS011;21130;51.728;8.748;2023-11-22T03:18:31;9.43;;;7.32;;
34924;SDS011;21130;51.728;8.748;2023-11-22T03:20:58;10.70;;;7.38;;
34924;SDS011;21130;51.728;8.748;2023-11-22T03:23:26;13.23;;;7.68;;
34924;SDS011;21130;51.728;8.748;2023-11-22T03:25:52;12.05;;;7.47;;
34924;SDS011;21130;51.728;8.748;2023-11-22T03:28:19;8.95;;;7.53;;
34924;SDS011;21130;51.728;8.748;2023-11-22T03:31:07;10.38;;;7.15;;
34924;SDS011;21130;51.728;8.748;2023-11-22T03:33:51;9.05;;;7.07;;
34924;SDS011;21130;51.728;8.748;2023-11-22T03:36:36;9.10;;;7.18;;
34924;SDS011;21130;51.728;8.748;2023-11-22T03:39:22;11.93;;;7.38;;
34924;SDS011;21130;51.728;8.748;2023-11-22T03:41:50;10.75;;;8.27;;
34924;SDS011;21130;51.728;8.748;2023-11-22T03:44:16;10.30;;;7.53;;
34924;SDS011;21130;51.728;8.748;2023-11-22T03:46:45;10.30;;;7.60;;
34924;SDS011;21130;51.728;8.748;2023-11-22T03:49:11;8.52;;;7.53;;
34924;SDS011;21130;51.728;8.748;2023-11-22T03:51:40;9.52;;;7.40;;
34924;SDS011;21130;51.728;8.748;2023-11-22T03:54:08;11.10;;;7.78;;
34924;SDS011;21130;51.728;8.748;2023-11-22T03:56:37;8.50;;;7.40;;
34924;SDS011;21130;51.728;8.748;2023-11-22T03:59:04;10.77;;;7.88;;
34924;SDS011;21130;51.728;8.748;2023-11-22T04:01:31;9.40;;;7.85;;
34924;SDS011;21130;51.728;8.748;2023-11-22T04:03:59;12.07;;;8.82;;
34924;SDS011;21130;51.728;8.748;2023-11-22T04:06:25;11.65;;;8.05;;
34924;SDS011;21130;51.728;8.748;2023-11-22T04:08:52;14.32;;;9.30;;
34924;SDS011;21130;51.728;8.748;2023-11-22T04:11:19;15.93;;;9.52;;
34924;SDS011;21130;51.728;8.748;2023-11-22T04:13:46;12.40;;;9.05;;
34924;SDS011;21130;51.728;8.748;2023-11-22T04:16:13;12.15;;;9.43;;
34924;SDS011;21130;51.728;8.748;2023-11-22T04:18:39;13.30;;;8.38;;
34924;SDS011;21130;51.728;8.748;2023-11-22T04:21:07;14.10;;;9.15;;
34924;SDS011;21130;51.728;8.748;2023-11-22T04:23:34;12.20;;;8.55;;
34924;SDS011;21130;51.728;8.748;2023-11-22T04:26:01;13.93;;;9.25;;
34924;SDS011;21130;51.728;8.748;2023-11-22T04:28:28;11.30;;;8.55;;
34924;SDS011;21130;51.728;8.748;2023-11-22T04:30:55;16.65;;;9.95;;
34924;SDS011;21130;51.728;8.748;2023-11-22T04:33:22;13.93;;;8.98;;
34924;SDS011;21130;51.728;8.748;2023-11-22T04:35:49;11.65;;;8.68;;
34924;SDS011;21130;51.728;8.748;2023-11-22T04:38:18;12.90;;;8.52;;
34924;SDS011;21130;51.728;8.748;2023-11-22T04:40:45;14.63;;;8.23;;
34924;SDS011;21130;51.728;8.748;2023-11-22T04:43:11;14.45;;;9.88;;
34924;SDS011;21130;51.728;8.748;2023-11-22T04:45:38;12.13;;;9.15;;
34924;SDS011;21130;51.728;8.748;2023-11-22T04:48:06;14.90;;;9.60;;
34924;SDS011;21130;51.728;8.748;2023-11-22T04:50:32;12.13;;;8.23;;
34924;SDS011;21130;51.728;8.748;2023-11-22T04:52:59;12.82;;;8.55;;
34924;SDS011;21130;51.728;8.748;2023-11-22T04:55:27;13.05;;;8.35;;
34924;SDS011;21130;51.728;8.748;2023-11-22T04:57:54;13.32;;;8.93;;
34924;SDS011;21130;51.728;8.748;2023-11-22T05:00:21;14.13;;;8.55;;
34924;SDS011;21130;51.728;8.748;2023-11-22T05:02:48;13.00;;;8.90;;
34924;SDS011;21130;51.728;8.748;2023-11-22T05:05:14;13.57;;;9.55;;
34924;SDS011;21130;51.728;8.748;2023-11-22T05:07:41;13.73;;;9.25;;
34924;SDS011;21130;51.728;8.748;2023-11-22T05:10:09;14.68;;;9.63;;
34924;SDS011;21130;51.728;8.748;2023-11-22T05:12:38;15.73;;;9.52;;
34924;SDS011;21130;51.728;8.748;2023-11-22T05:15:05;16.40;;;9.52;;
34924;SDS011;21130;51.728;8.748;2023-11-22T05:17:32;13.73;;;9.13;;
34924;SDS011;21130;51.728;8.748;2023-11-22T05:19:58;12.90;;;9.65;;
34924;SDS011;21130;51.728;8.748;2023-11-22T05:22:25;15.45;;;10.30;;
34924;SDS011;21130;51.728;8.748;2023-11-22T05:24:51;12.00;;;9.18;;
34924;SDS011;21130;51.728;8.748;2023-11-22T05:27:18;13.77;;;9.85;;
34924;SDS011;21130;51.728;8.748;2023-11-22T05:29:45;17.65;;;10.00;;
34924;SDS011;21130;51.728;8.748;2023-11-22T05:32:12;14.02;;;9.88;;
34924;SDS011;21130;51.728;8.748;2023-11-22T05:34:38;15.00;;;10.13;;
34924;SDS011;21130;51.728;8.748;2023-11-22T05:37:05;14.68;;;9.40;;
34924;SDS011;21130;51.728;8.748;2023-11-22T05:39:32;15.23;;;10.38;;
34924;SDS011;21130;51.728;8.748;2023-11-22T05:41:58;13.63;;;8.82;;
34924;SDS011;21130;51.728;8.748;2023-11-22T05:44:26;15.20;;;9.35;;
34924;SDS011;21130;51.728;8.748;2023-11-22T05:46:55;14.43;;;9.15;;
34924;SDS011;21130;51.728;8.748;2023-11-22T05:49:22;16.45;;;10.05;;
34924;SDS011;21130;51.728;8.748;2023-11-22T05:51:48;14.40;;;10.13;;
34924;SDS011;21130;51.728;8.748;2023-11-22T05:54:14;17.67;;;9.68;;
34924;SDS011;21130;51.728;8.748;2023-11-22T05:56:43;15.82;;;10.55;;
34924;SDS011;21130;51.728;8.748;2023-11-22T05:59:09;16.50;;;10.18;;
34924;SDS011;21130;51.728;8.748;2023-11-22T06:01:35;16.13;;;9.77;;
34924;SDS011;21130;51.728;8.748;2023-11-22T06:04:03;15.32;;;10.10;;
34924;SDS011;21130;51.728;8.748;2023-11-22T06:06:30;14.40;;;10.18;;
34924;SDS011;21130;51.728;8.748;2023-11-22T06:08:57;14.57;;;10.05;;
34924;SDS011;21130;51.728;8.748;2023-11-22T06:11:23;13.25;;;9.10;;
34924;SDS011;21130;51.728;8.748;2023-11-22T06:13:50;15.38;;;9.68;;
34924;SDS011;21130;51.728;8.748;2023-11-22T06:16:16;15.70;;;9.73;;
34924;SDS011;21130;51.728;8.748;2023-11-22T06:18:43;13.90;;;10.07;;
34924;SDS011;21130;51.728;8.748;2023-11-22T06:21:11;14.90;;;9.95;;
34924;SDS011;21130;51.728;8.748;2023-11-22T06:23:38;14.75;;;9.68;;
34924;SDS011;21130;51.728;8.748;2023-11-22T06:26:04;14.32;;;9.45;;
34924;SDS011;21130;51.728;8.748;2023-11-22T06:28:32;15.95;;;9.15;;
34924;SDS011;21130;51.728;8.748;2023-11-22T06:30:59;14.25;;;9.57;;
34924;SDS011;21130;51.728;8.748;2023-11-22T06:33:26;15.88;;;10.02;;
34924;SDS011;21130;51.728;8.748;2023-11-22T06:35:52;12.77;;;9.30;;
34924;SDS011;21130;51.728;8.748;2023-11-22T06:38:20;16.70;;;10.48;;
34924;SDS011;21130;51.728;8.748;2023-11-22T06:40:47;17.20;;;10.57;;
34924;SDS011;21130;51.728;8.748;2023-11-22T06:43:13;15.18;;;10.52;;
34924;SDS011;21130;51.728;8.748;2023-11-22T06:45:39;16.88;;;10.48;;
34924;SDS011;21130;51.728;8.748;2023-11-22T06:48:07;18.13;;;10.57;;
34924;SDS011;21130;51.728;8.748;2023-11-22T06:50:33;15.32;;;10.50;;
34924;SDS011;21130;51.728;8.748;2023-11-22T06:53:00;16.38;;;10.25;;
34924;SDS011;21130;51.728;8.748;2023-11-22T06:55:29;15.82;;;10.27;;
34924;SDS011;21130;51.728;8.748;2023-11-22T06:57:57;15.40;;;10.55;;
34924;SDS011;21130;51.728;8.748;2023-11-22T07:00:24;16.33;;;10.45;;
34924;SDS011;21130;51.728;8.748;2023-11-22T07:02:52;18.23;;;10.63;;
34924;SDS011;21130;51.728;8.748;2023-11-22T07:05:19;17.17;;;10.77;;
34924;SDS011;21130;51.728;8.748;2023-11-22T07:07:45;18.55;;;11.45;;
34924;SDS011;21130;51.728;8.748;2023-11-22T07:10:13;16.95;;;10.93;;
34924;SDS011;21130;51.728;8.748;2023-11-22T07:12:41;15.73;;;11.93;;
34924;SDS011;21130;51.728;8.748;2023-11-22T07:15:09;19.35;;;12.20;;
34924;SDS011;21130;51.728;8.748;2023-11-22T07:17:36;16.83;;;11.73;;
34924;SDS011;21130;51.728;8.748;2023-11-22T07:20:04;21.05;;;11.52;;
34924;SDS011;21130;51.728;8.748;2023-11-22T07:22:34;17.40;;;11.98;;
34924;SDS011;21130;51.728;8.748;2023-11-22T07:25:01;18.75;;;12.27;;
34924;SDS011;21130;51.728;8.748;2023-11-22T07:27:28;19.83;;;12.35;;
34924;SDS011;21130;51.728;8.748;2023-11-22T07:29:57;19.33;;;11.90;;
34924;SDS011;21130;51.728;8.748;2023-11-22T07:32:23;19.15;;;11.68;;
34924;SDS011;21130;51.728;8.748;2023-11-22T07:34:50;18.95;;;12.27;;
34924;SDS011;21130;51.728;8.748;2023-11-22T07:37:20;18.35;;;12.07;;
34924;SDS011;21130;51.728;8.748;2023-11-22T07:39:47;21.40;;;12.80;;
34924;SDS011;21130;51.728;8.748;2023-11-22T07:42:15;18.73;;;12.35;;
34924;SDS011;21130;51.728;8.748;2023-11-22T07:44:41;25.30;;;16.15;;
34924;SDS011;21130;51.728;8.748;2023-11-22T07:47:09;23.23;;;15.05;;
34924;SDS011;21130;51.728;8.748;2023-11-22T07:49:38;22.08;;;15.10;;
34924;SDS011;21130;51.728;8.748;2023-11-22T07:52:07;24.67;;;15.57;;
34924;SDS011;21130;51.728;8.748;2023-11-22T07:55:07;22.55;;;15.95;;
34924;SDS011;21130;51.728;8.748;2023-11-22T07:57:35;21.50;;;15.48;;
34924;SDS011;21130;51.728;8.748;2023-11-22T08:00:01;20.55;;;14.18;;
34924;SDS011;21130;51.728;8.748;2023-11-22T08:02:33;21.17;;;14.63;;
34924;SDS011;21130;51.728;8.748;2023-11-22T08:04:59;21.45;;;14.82;;
34924;SDS011;21130;51.728;8.748;2023-11-22T08:07:28;22.15;;;14.55;;
34924;SDS011;21130;51.728;8.748;2023-11-22T08:09:57;22.42;;;15.82;;
34924;SDS011;21130;51.728;8.748;2023-11-22T08:12:34;24.05;;;16.73;;
34924;SDS011;21130;51.728;8.748;2023-11-22T08:15:00;21.20;;;15.10;;
34924;SDS011;21130;51.728;8.748;2023-11-22T08:17:28;20.27;;;15.18;;
34924;SDS011;21130;51.728;8.748;2023-11-22T08:19:58;19.38;;;15.88;;
34924;SDS011;21130;51.728;8.748;2023-11-22T08:22:25;20.15;;;14.98;;
34924;SDS011;21130;51.728;8.748;2023-11-22T08:24:54;21.95;;;14.80;;
34924;SDS011;21130;51.728;8.748;2023-11-22T08:27:22;18.92;;;13.50;;
34924;SDS011;21130;51.728;8.748;2023-11-22T08:29:49;16.92;;;13.43;;
34924;SDS011;21130;51.728;8.748;2023-11-22T08:32:15;15.25;;;11.50;;
34924;SDS011;21130;51.728;8.748;2023-11-22T08:34:43;10.95;;;8.60;;
34924;SDS011;21130;51.728;8.748;2023-11-22T08:37:12;9.98;;;8.15;;
34924;SDS011;21130;51.728;8.748;2023-11-22T08:39:38;11.55;;;8.20;;
34924;SDS011;21130;51.728;8.748;2023-11-22T08:42:05;11.45;;;7.10;;
34924;SDS011;21130;51.728;8.748;2023-11-22T08:44:34;9.10;;;5.60;;
34924;SDS011;21130;51.728;8.748;2023-11-22T08:47:01;6.07;;;5.45;;
34924;SDS011;21130;51.728;8.748;2023-11-22T08:49:28;11.25;;;6.03;;
34924;SDS011;21130;51.728;8.748;2023-11-22T08:51:55;8.43;;;5.57;;
34924;SDS011;21130;51.728;8.748;2023-11-22T08:54:25;9.95;;;6.45;;
34924;SDS011;21130;51.728;8.748;2023-11-22T08:56:53;12.35;;;6.80;;
34924;SDS011;21130;51.728;8.748;2023-11-22T08:59:22;7.40;;;6.18;;
34924;SDS011;21130;51.728;8.748;2023-11-22T09:01:49;8.32;;;6.00;;
34924;SDS011;21130;51.728;8.748;2023-11-22T09:04:15;6.50;;;5.40;;
34924;SDS011;21130;51.728;8.748;2023-11-22T09:06:42;6.68;;;5.55;;
34924;SDS011;21130;51.728;8.748;2023-11-22T09:09:08;7.45;;;5.63;;
34924;SDS011;21130;51.728;8.748;2023-11-22T09:11:41;10.80;;;6.07;;
34924;SDS011;21130;51.728;8.748;2023-11-22T09:14:08;9.07;;;5.43;;
34924;SDS011;21130;51.728;8.748;2023-11-22T09:16:35;6.28;;;5.10;;
34924;SDS011;21130;51.728;8.748;2023-11-22T09:19:02;7.80;;;5.10;;
34924;SDS011;21130;51.728;8.748;2023-11-22T09:21:28;7.13;;;5.35;;
34924;SDS011;21130;51.728;8.748;2023-11-22T09:23:55;6.85;;;5.38;;
34924;SDS011;21130;51.728;8.748;2023-11-22T09:26:27;7.50;;;5.68;;
34924;SDS011;21130;51.728;8.748;2023-11-22T09:28:55;7.22;;;5.72;;
34924;SDS011;21130;51.728;8.748;2023-11-22T09:31:22;9.30;;;5.75;;
34924;SDS011;21130;51.728;8.748;2023-11-22T09:33:48;6.63;;;5.90;;
34924;SDS011;21130;51.728;8.748;2023-11-22T09:36:15;8.88;;;5.70;;
34924;SDS011;21130;51.728;8.748;2023-11-22T09:38:43;6.95;;;5.85;;
34924;SDS011;21130;51.728;8.748;2023-11-22T09:41:09;7.65;;;5.80;;
34924;SDS011;21130;51.728;8.748;2023-11-22T09:43:36;8.63;;;5.47;;
34924;SDS011;21130;51.728;8.748;2023-11-22T09:46:06;5.63;;;5.13;;
34924;SDS011;21130;51.728;8.748;2023-11-22T09:48:36;6.05;;;4.75;;
34924;SDS011;21130;51.728;8.748;2023-11-22T09:51:08;6.15;;;4.72;;
34924;SDS011;21130;51.728;8.748;2023-11-22T09:53:45;6.10;;;4.85;;
34924;SDS011;21130;51.728;8.748;2023-11-22T09:56:18;4.53;;;4.13;;
34924;SDS011;21130;51.728;8.748;2023-11-22T09:58:47;5.70;;;4.18;;
34924;SDS011;21130;51.728;8.748;2023-11-22T10:01:21;4.93;;;4.18;;
34924;SDS011;21130;51.728;8.748;2023-11-22T10:03:48;6.13;;;4.38;;
34924;SDS011;21130;51.728;8.748;2023-11-22T10:06:14;4.97;;;4.22;;
34924;SDS011;21130;51.728;8.748;2023-11-22T10:08:42;5.65;;;4.13;;
34924;SDS011;21130;51.728;8.748;2023-11-22T10:11:12;6.18;;;4.50;;
34924;SDS011;21130;51.728;8.748;2023-11-22T10:13:41;6.00;;;4.13;;
34924;SDS011;21130;51.728;8.748;2023-11-22T10:16:12;3.95;;;3.33;;
34924;SDS011;21130;51.728;8.748;2023-11-22T10:18:43;4.90;;;3.38;;
34924;SDS011;21130;51.728;8.748;2023-11-22T10:21:21;4.20;;;3.40;;
34924;SDS011;21130;51.728;8.748;2023-11-22T10:23:49;3.35;;;3.05;;
34924;SDS011;21130;51.728;8.748;2023-11-22T10:26:17;3.85;;;3.17;;
34924;SDS011;21130;51.728;8.748;2023-11-22T10:28:43;3.10;;;2.80;;
34924;SDS011;21130;51.728;8.748;2023-11-22T10:31:10;4.72;;;4.32;;
34924;SDS011;21130;51.728;8.748;2023-11-22T10:33:38;4.22;;;3.83;;
34924;SDS011;21130;51.728;8.748;2023-11-22T10:36:08;4.50;;;3.97;;
34924;SDS011;21130;51.728;8.748;2023-11-22T10:38:37;5.32;;;4.15;;
34924;SDS011;21130;51.728;8.748;2023-11-22T10:41:04;4.53;;;3.97;;
34924;SDS011;21130;51.728;8.748;2023-11-22T10:43:31;5.00;;;3.83;;
34924;SDS011;21130;51.728;8.748;2023-11-22T10:46:00;4.30;;;3.75;;
34924;SDS011;21130;51.728;8.748;2023-11-22T10:48:28;3.92;;;3.15;;
34924;SDS011;21130;51.728;8.748;2023-11-22T10:50:57;3.83;;;3.30;;
34924;SDS011;21130;51.728;8.748;2023-11-22T10:53:32;5.32;;;3.70;;
34924;SDS011;21130;51.728;8.748;2023-11-22T10:56:03;5.03;;;3.67;;
34924;SDS011;21130;51.728;8.748;2023-11-22T10:58:37;3.78;;;3.13;;
34924;SDS011;21130;51.728;8.748;2023-11-22T11:01:15;5.13;;;3.80;;
34924;SDS011;21130;51.728;8.748;2023-11-22T11:03:51;4.10;;;3.40;;
34924;SDS011;21130;51.728;8.748;2023-11-22T11:06:26;5.50;;;3.60;;
34924;SDS011;21130;51.728;8.748;2023-11-22T11:09:01;6.03;;;3.33;;
34924;SDS011;21130;51.728;8.748;2023-11-22T11:11:30;5.78;;;3.83;;
34924;SDS011;21130;51.728;8.748;2023-11-22T11:13:58;5.90;;;3.53;;
34924;SDS011;21130;51.728;8.748;2023-11-22T11:16:25;4.97;;;4.28;;
34924;SDS011;21130;51.728;8.748;2023-11-22T11:18:53;4.88;;;4.18;;
34924;SDS011;21130;51.728;8.748;2023-11-22T11:21:20;5.05;;;3.55;;
34924;SDS011;21130;51.728;8.748;2023-11-22T11:23:47;4.15;;;3.75;;
34924;SDS011;21130;51.728;8.748;2023-11-22T11:26:28;5.03;;;3.47;;
34924;SDS011;21130;51.728;8.748;2023-11-22T11:28:59;4.25;;;3.15;;
34924;SDS011;21130;51.728;8.748;2023-11-22T11:31:30;4.18;;;3.78;;
34924;SDS011;21130;51.728;8.748;2023-11-22T11:34:00;4.65;;;3.58;;
34924;SDS011;21130;51.728;8.748;2023-11-22T11:36:29;3.65;;;3.00;;
34924;SDS011;21130;51.728;8.748;2023-11-22T11:38:57;8.38;;;4.03;;
34924;SDS011;21130;51.728;8.748;2023-11-22T11:41:26;4.93;;;3.78;;
34924;SDS011;21130;51.728;8.748;2023-11-22T11:43:55;4.90;;;3.53;;
34924;SDS011;21130;51.728;8.748;2023-11-22T11:46:22;4.03;;;3.47;;
34924;SDS011;21130;51.728;8.748;2023-11-22T11:48:50;5.00;;;3.58;;
34924;SDS011;21130;51.728;8.748;2023-11-22T11:51:18;4.95;;;4.05;;
34924;SDS011;21130;51.728;8.748;2023-11-22T11:53:46;4.07;;;3.67;;
34924;SDS011;21130;51.728;8.748;2023-11-22T11:56:14;5.05;;;3.25;;
34924;SDS011;21130;51.728;8.748;2023-11-22T11:58:40;5.85;;;3.55;;
34924;SDS011;21130;51.728;8.748;2023-11-22T12:01:11;3.72;;;3.33;;
34924;SDS011;21130;51.728;8.748;2023-11-22T12:03:38;4.18;;;3.67;;
34924;SDS011;21130;51.728;8.748;2023-11-22T12:06:05;5.35;;;3.90;;
34924;SDS011;21130;51.728;8.748;2023-11-22T12:08:32;6.70;;;3.88;;
34924;SDS011;21130;51.728;8.748;2023-11-22T12:11:01;4.22;;;3.47;;
34924;SDS011;21130;51.728;8.748;2023-11-22T12:13:29;4.30;;;3.47;;
34924;SDS011;21130;51.728;8.748;2023-11-22T12:15:56;5.65;;;3.50;;
34924;SDS011;21130;51.728;8.748;2023-11-22T12:18:24;5.18;;;3.70;;
34924;SDS011;21130;51.728;8.748;2023-11-22T12:20:54;7.35;;;3.90;;
34924;SDS011;21130;51.728;8.748;2023-11-22T12:23:22;6.60;;;3.83;;
34924;SDS011;21130;51.728;8.748;2023-11-22T12:25:53;3.72;;;3.25;;
34924;SDS011;21130;51.728;8.748;2023-11-22T12:28:22;6.65;;;3.58;;
34924;SDS011;21130;51.728;8.748;2023-11-22T12:30:50;5.00;;;3.92;;
34924;SDS011;21130;51.728;8.748;2023-11-22T12:33:17;4.20;;;3.80;;
34924;SDS011;21130;51.728;8.748;2023-11-22T12:35:46;6.05;;;4.15;;
34924;SDS011;21130;51.728;8.748;2023-11-22T12:38:14;5.30;;;4.38;;
34924;SDS011;21130;51.728;8.748;2023-11-22T12:40:44;4.28;;;3.88;;
34924;SDS011;21130;51.728;8.748;2023-11-22T12:43:12;4.68;;;4.10;;
34924;SDS011;21130;51.728;8.748;2023-11-22T12:45:40;5.68;;;4.68;;
34924;SDS011;21130;51.728;8.748;2023-11-22T12:48:19;5.35;;;4.65;;
34924;SDS011;21130;51.728;8.748;2023-11-22T12:50:47;5.10;;;4.60;;
34924;SDS011;21130;51.728;8.748;2023-11-22T12:53:15;6.32;;;5.72;;
34924;SDS011;21130;51.728;8.748;2023-11-22T12:55:42;7.03;;;4.90;;
34924;SDS011;21130;51.728;8.748;2023-11-22T12:58:10;7.70;;;6.93;;
34924;SDS011;21130;51.728;8.748;2023-11-22T13:00:37;8.25;;;7.10;;
34924;SDS011;21130;51.728;8.748;2023-11-22T13:03:04;5.20;;;4.70;;
34924;SDS011;21130;51.728;8.748;2023-11-22T13:05:31;5.03;;;4.32;;
34924;SDS011;21130;51.728;8.748;2023-11-22T13:07:59;5.18;;;4.68;;
34924;SDS011;21130;51.728;8.748;2023-11-22T13:10:25;11.88;;;6.68;;
34924;SDS011;21130;51.728;8.748;2023-11-22T13:12:52;5.43;;;4.53;;
34924;SDS011;21130;51.728;8.748;2023-11-22T13:15:20;5.65;;;4.20;;
34924;SDS011;21130;51.728;8.748;2023-11-22T13:17:48;5.28;;;4.70;;
34924;SDS011;21130;51.728;8.748;2023-11-22T13:20:15;5.13;;;4.25;;
34924;SDS011;21130;51.728;8.748;2023-11-22T13:22:45;5.38;;;4.60;;
34924;SDS011;21130;51.728;8.748;2023-11-22T13:25:13;5.07;;;4.57;;
34924;SDS011;21130;51.728;8.748;2023-11-22T13:27:42;4.90;;;4.40;;
34924;SDS011;21130;51.728;8.748;2023-11-22T13:30:08;7.50;;;4.43;;
34924;SDS011;21130;51.728;8.748;2023-11-22T13:32:35;4.47;;;3.80;;
34924;SDS011;21130;51.728;8.748;2023-11-22T13:35:02;4.85;;;3.90;;
34924;SDS011;21130;51.728;8.748;2023-11-22T13:37:35;5.82;;;3.90;;
34924;SDS011;21130;51.728;8.748;2023-11-22T13:40:02;5.85;;;3.70;;
34924;SDS011;21130;51.728;8.748;2023-11-22T13:42:35;4.72;;;3.95;;
34924;SDS011;21130;51.728;8.748;2023-11-22T13:45:01;6.00;;;4.10;;
34924;SDS011;21130;51.728;8.748;2023-11-22T13:47:28;5.75;;;3.95;;
34924;SDS011;21130;51.728;8.748;2023-11-22T13:49:56;5.47;;;3.90;;
34924;SDS011;21130;51.728;8.748;2023-11-22T13:52:24;5.70;;;3.60;;
34924;SDS011;21130;51.728;8.748;2023-11-22T14:01:05;5.95;;;3.88;;
34924;SDS011;21130;51.728;8.748;2023-11-22T14:03:36;5.80;;;4.07;;
34924;SDS011;21130;51.728;8.748;2023-11-22T14:06:04;6.35;;;5.05;;
34924;SDS011;21130;51.728;8.748;2023-11-22T14:08:31;7.13;;;4.15;;
34924;SDS011;21130;51.728;8.748;2023-11-22T14:10:58;5.43;;;4.10;;
34924;SDS011;21130;51.728;8.748;2023-11-22T14:13:24;7.60;;;4.30;;
34924;SDS011;21130;51.728;8.748;2023-11-22T14:15:51;4.95;;;3.90;;
34924;SDS011;21130;51.728;8.748;2023-11-22T14:18:18;7.47;;;3.72;;
34924;SDS011;21130;51.728;8.748;2023-11-22T14:20:45;4.03;;;3.63;;
34924;SDS011;21130;51.728;8.748;2023-11-22T14:23:12;4.68;;;3.30;;
34924;SDS011;21130;51.728;8.748;2023-11-22T14:25:38;5.15;;;3.28;;
34924;SDS011;21130;51.728;8.748;2023-11-22T14:28:05;5.03;;;3.80;;
34924;SDS011;21130;51.728;8.748;2023-11-22T14:30:33;4.80;;;3.50;;
34924;SDS011;21130;51.728;8.748;2023-11-22T14:33:01;4.57;;;3.47;;
34924;SDS011;21130;51.728;8.748;2023-11-22T14:35:32;4.72;;;3.70;;
34924;SDS011;21130;51.728;8.748;2023-11-22T14:38:00;4.63;;;3.90;;
34924;SDS011;21130;51.728;8.748;2023-11-22T14:40:28;5.53;;;4.35;;
34924;SDS011;21130;51.728;8.748;2023-11-22T14:42:56;3.88;;;3.47;;
34924;SDS011;21130;51.728;8.748;2023-11-22T14:45:22;5.68;;;3.95;;
34924;SDS011;21130;51.728;8.748;2023-11-22T14:47:51;5.47;;;4.03;;
34924;SDS011;21130;51.728;8.748;2023-11-22T14:50:18;4.70;;;3.45;;
34924;SDS011;21130;51.728;8.748;2023-11-22T14:52:47;4.50;;;3.72;;